Time;durP1;ratioP1;P1;durP2;ratioP2;P2;SDS_P1;SDS_P2;PMS_P1;PMS_P2;Temp;Humidity;BMP_temperature;BMP_pressure;BME280_temperature;BME280_humidity;BME280_pressure;Samples;Min_cycle;Max_cycle;Signal;HPM_P1;HPM_P2
2024/02/04 00:01:30;;;;;;;12.50;9.37;;;;;;;9.18;100.00;101810.09;5017411;28;20479;-82
2024/02/04 00:03:56;;;;;;;12.85;10.50;;;;;;;9.29;100.00;101818.22;5020716;28;20775;-84
2024/02/04 00:06:23;;;;;;;13.80;10.27;;;;;;;9.34;100.00;101821.41;5021315;28;20133;-80
2024/02/04 00:08:50;;;;;;;12.77;10.18;;;;;;;9.30;100.00;101814.63;5022129;28;20046;-81
2024/02/04 00:11:16;;;;;;;13.27;10.10;;;;;;;9.24;100.00;101807.06;5019897;28;20062;-81
2024/02/04 00:13:43;;;;;;;14.35;11.40;;;;;;;9.25;100.00;101812.28;5017776;28;20077;-81
2024/02/04 00:16:11;;;;;;;15.80;12.45;;;;;;;9.28;100.00;101816.50;5017665;28;20108;-82
2024/02/04 00:18:38;;;;;;;16.00;12.43;;;;;;;9.28;100.00;101808.56;5017588;28;20054;-80
2024/02/04 00:21:05;;;;;;;16.40;12.02;;;;;;;9.27;100.00;101796.31;5017115;28;20053;-81
2024/02/04 00:23:34;;;;;;;14.73;11.63;;;;;;;9.25;100.00;101801.72;5018095;28;20077;-82
2024/02/04 00:26:06;;;;;;;15.55;10.90;;;;;;;9.30;100.00;101798.78;5017904;28;20050;-82
2024/02/04 00:28:33;;;;;;;15.53;11.43;;;;;;;9.27;100.00;101783.09;5021204;28;20054;-82
2024/02/04 00:30:59;;;;;;;14.95;12.02;;;;;;;9.27;100.00;101786.59;5020747;28;20041;-81
2024/02/04 00:33:28;;;;;;;18.25;13.50;;;;;;;9.30;100.00;101796.97;5021014;28;20058;-78
2024/02/04 00:35:57;;;;;;;16.63;12.00;;;;;;;9.25;100.00;101790.28;5021360;28;20115;-81
2024/02/04 00:38:23;;;;;;;17.92;12.65;;;;;;;9.26;100.00;101781.41;5012907;28;20108;-81
2024/02/04 00:40:52;;;;;;;16.25;12.60;;;;;;;9.27;100.00;101775.19;5020647;28;20075;-81
2024/02/04 00:43:18;;;;;;;15.30;11.77;;;;;;;9.25;100.00;101772.66;5021465;28;20054;-82
2024/02/04 00:45:50;;;;;;;15.73;12.32;;;;;;;9.29;100.00;101783.88;5021829;28;20095;-81
2024/02/04 00:48:24;;;;;;;17.98;12.48;;;;;;;9.30;100.00;101793.50;5020747;28;20058;-80
2024/02/04 00:50:52;;;;;;;15.80;11.70;;;;;;;9.22;100.00;101775.47;5021325;28;20060;-81
2024/02/04 00:53:21;;;;;;;15.27;11.65;;;;;;;9.26;100.00;101791.97;5021064;28;20049;-80
2024/02/04 00:55:49;;;;;;;15.02;11.95;;;;;;;9.26;100.00;101792.84;5020670;28;20061;-81
2024/02/04 00:58:16;;;;;;;14.35;10.07;;;;;;;9.26;100.00;101782.25;5020143;28;20471;-82
2024/02/04 01:00:49;;;;;;;12.05;9.45;;;;;;;9.33;100.00;101798.56;5020556;28;20168;-81
2024/02/04 01:03:18;;;;;;;;;;;;;;;9.34;100.00;101792.34;5020729;28;20076;-81
2024/02/04 01:05:45;;;;;;;11.70;8.98;;;;;;;9.31;100.00;101781.97;5020276;28;19937;-81
2024/02/04 01:08:13;;;;;;;10.52;8.52;;;;;;;9.23;100.00;101773.69;5018853;28;20077;-79
2024/02/04 01:10:40;;;;;;;10.70;8.38;;;;;;;9.27;100.00;101780.47;5020211;28;20046;-82
2024/02/04 01:13:06;;;;;;;10.65;8.40;;;;;;;9.28;100.00;101793.56;5019900;28;20534;-82
2024/02/04 01:15:33;;;;;;;9.55;7.70;;;;;;;9.28;100.00;101790.09;5020199;28;20104;-81
2024/02/04 01:18:00;;;;;;;10.50;7.80;;;;;;;9.30;100.00;101788.22;5019555;28;20065;-83
2024/02/04 01:20:27;;;;;;;8.98;7.15;;;;;;;9.30;100.00;101785.56;5019802;28;20145;-81
2024/02/04 01:22:54;;;;;;;9.35;7.03;;;;;;;9.21;100.00;101775.59;5020067;28;20046;-81
2024/02/04 01:25:22;;;;;;;8.63;6.93;;;;;;;9.27;100.00;101783.09;5019500;28;20500;-80
2024/02/04 01:27:48;;;;;;;9.45;6.90;;;;;;;9.26;100.00;101790.19;5018546;28;20050;-81
2024/02/04 01:30:15;;;;;;;9.23;6.78;;;;;;;9.26;100.00;101789.34;5019998;28;20054;-82
2024/02/04 01:32:42;;;;;;;9.27;6.35;;;;;;;9.30;100.00;101782.94;5019606;28;20074;-81
2024/02/04 01:35:09;;;;;;;8.85;6.68;;;;;;;9.27;100.00;101783.09;5019819;28;20151;-81
2024/02/04 01:37:36;;;;;;;9.23;6.10;;;;;;;9.27;100.00;101793.66;5019124;28;20050;-81
2024/02/04 01:40:02;;;;;;;9.18;6.55;;;;;;;9.31;100.00;101792.53;5023766;28;20053;-81
2024/02/04 01:42:32;;;;;;;8.73;6.15;;;;;;;9.30;100.00;101789.06;5030656;28;20050;-81
2024/02/04 01:44:59;;;;;;;8.32;6.40;;;;;;;9.33;100.00;101793.28;5029957;28;20531;-80
2024/02/04 01:47:26;;;;;;;10.93;6.07;;;;;;;9.34;100.00;101795.00;5029959;28;20050;-80
2024/02/04 01:49:52;;;;;;;8.13;5.95;;;;;;;9.36;100.00;101777.25;5027890;28;20073;-81
2024/02/04 01:52:19;;;;;;;10.32;6.30;;;;;;;9.38;100.00;101785.09;5027301;28;20042;-81
2024/02/04 01:54:47;;;;;;;7.55;5.47;;;;;;;9.41;100.00;101776.94;5027938;28;20054;-79
2024/02/04 01:57:14;;;;;;;7.68;5.38;;;;;;;9.46;100.00;101772.22;5027270;22;20050;-80
2024/02/04 01:59:45;;;;;;;7.43;5.97;;;;;;;9.46;100.00;101780.97;5011289;28;20466;-81
2024/02/04 02:02:12;;;;;;;7.88;5.90;;;;;;;9.45;100.00;101770.50;5014188;28;20164;-81
2024/02/04 02:04:39;;;;;;;7.68;5.80;;;;;;;9.49;100.00;101783.44;5011323;28;20054;-81
2024/02/04 02:07:07;;;;;;;10.35;6.22;;;;;;;9.49;100.00;101777.31;5017351;28;20050;-81
2024/02/04 02:09:34;;;;;;;8.55;6.10;;;;;;;9.47;100.00;101772.13;5013927;28;20038;-81
2024/02/04 02:12:08;;;;;;;8.20;6.55;;;;;;;9.48;100.00;101768.53;5019090;28;20081;-83
2024/02/04 02:14:38;;;;;;;7.82;6.05;;;;;;;9.51;100.00;101759.53;5017813;28;20057;-82
2024/02/04 02:17:17;;;;;;;9.63;6.90;;;;;;;9.47;100.00;101758.06;5016925;28;20351;-82
2024/02/04 02:19:49;;;;;;;9.48;6.82;;;;;;;9.47;100.00;101766.84;5021719;28;20102;-81
2024/02/04 02:22:27;;;;;;;9.80;6.43;;;;;;;9.53;100.00;101768.22;5022961;28;20085;-83
2024/02/04 02:25:00;;;;;;;9.82;6.97;;;;;;;9.58;100.00;101776.72;5021433;28;20073;-83
2024/02/04 02:27:26;;;;;;;;;;;;;;;9.54;100.00;101770.75;5016094;28;20439;-84
2024/02/04 02:29:53;;;;;;;9.98;6.68;;;;;;;9.51;100.00;101764.81;5019252;28;20220;-84
2024/02/04 02:32:20;;;;;;;10.63;7.10;;;;;;;9.53;100.00;101760.31;5017152;28;20549;-85
2024/02/04 02:34:47;;;;;;;10.48;6.82;;;;;;;9.55;100.00;101758.41;5014648;28;20522;-83
2024/02/04 02:37:24;;;;;;;10.35;7.60;;;;;;;9.49;100.00;101757.00;5019871;28;20057;-83
2024/02/04 02:39:59;;;;;;;8.35;6.30;;;;;;;9.52;100.00;101756.81;5021348;28;20136;-82
2024/02/04 02:42:27;;;;;;;9.13;6.57;;;;;;;9.51;100.00;101755.13;5018047;28;20516;-83
2024/02/04 02:44:54;;;;;;;10.23;6.57;;;;;;;9.50;100.00;101758.69;5007107;28;20049;-82
2024/02/04 02:47:22;;;;;;;8.50;6.53;;;;;;;9.49;100.00;101754.38;5018599;28;20189;-81
2024/02/04 02:49:51;;;;;;;8.00;6.68;;;;;;;9.54;100.00;101757.56;5018999;28;20056;-82
2024/02/04 02:52:18;;;;;;;11.43;6.15;;;;;;;9.56;100.00;101753.03;5020238;28;20157;-81
2024/02/04 02:54:44;;;;;;;7.07;5.90;;;;;;;9.54;100.00;101764.63;5009308;28;20247;-81
2024/02/04 02:57:12;;;;;;;8.90;6.35;;;;;;;9.52;100.00;101756.81;5018151;28;20054;-81
2024/02/04 02:59:39;;;;;;;8.18;5.82;;;;;;;9.52;100.00;101759.47;5012454;28;20428;-82
2024/02/04 03:02:19;;;;;;;7.38;5.63;;;;;;;9.54;100.00;101754.06;5021678;28;20540;-84
2024/02/04 03:04:46;;;;;;;7.47;5.47;;;;;;;9.57;100.00;101760.00;5017901;28;20070;-84
2024/02/04 03:07:15;;;;;;;7.70;5.68;;;;;;;9.55;100.00;101754.00;5026783;28;20108;-83
2024/02/04 03:09:43;;;;;;;7.30;5.30;;;;;;;9.62;100.00;101755.25;5022132;28;20467;-83
2024/02/04 03:12:10;;;;;;;6.80;5.10;;;;;;;9.58;100.00;101756.41;5008005;28;20106;-81
2024/02/04 03:14:45;;;;;;;9.30;6.00;;;;;;;9.65;100.00;101750.75;5020550;28;20057;-82
2024/02/04 03:17:20;;;;;;;8.75;5.85;;;;;;;9.63;100.00;101741.09;5001542;28;20066;-82
2024/02/04 03:20:07;;;;;;;8.13;5.72;;;;;;;9.67;100.00;101744.38;5000754;28;20085;-80
2024/02/04 03:22:39;;;;;;;8.43;5.50;;;;;;;9.70;100.00;101738.06;5013908;28;20467;-82
2024/02/04 03:25:19;;;;;;;7.78;5.95;;;;;;;9.71;100.00;101742.41;5020151;28;20057;-83
2024/02/04 03:27:46;;;;;;;9.02;5.95;;;;;;;9.72;100.00;101747.56;5019650;28;20050;-81
2024/02/04 03:30:15;;;;;;;7.10;5.60;;;;;;;9.69;100.00;101753.09;5009036;28;20423;-82
2024/02/04 03:32:41;;;;;;;9.10;5.75;;;;;;;9.72;100.00;101749.38;5004678;28;20502;-81
2024/02/04 03:35:09;;;;;;;8.13;6.20;;;;;;;9.76;100.00;101754.34;5017685;28;20049;-82
2024/02/04 03:37:42;;;;;;;9.55;6.43;;;;;;;9.79;100.00;101742.75;5020456;28;20054;-82
2024/02/04 03:40:09;;;;;;;;;;;;;;;9.82;100.00;101751.31;5019767;28;20134;-82
2024/02/04 03:42:35;;;;;;;9.18;6.70;;;;;;;9.80;100.00;101755.00;5020815;28;19948;-82
2024/02/04 03:45:03;;;;;;;8.82;6.45;;;;;;;9.78;100.00;101757.75;5020401;28;20085;-82
2024/02/04 03:47:31;;;;;;;9.85;6.63;;;;;;;9.78;100.00;101741.06;5019631;28;20061;-83
2024/02/04 03:49:58;;;;;;;9.68;7.20;;;;;;;9.72;100.00;101750.22;4993777;28;20057;-82
2024/02/04 03:52:37;;;;;;;9.23;7.47;;;;;;;9.76;100.00;101748.22;5007948;28;20054;-83
2024/02/04 03:57:59;;;;;;;10.75;7.88;;;;;;;9.82;100.00;101734.59;5108366;23;20496;-82
2024/02/04 04:00:27;;;;;;;10.50;8.00;;;;;;;9.81;100.00;101740.84;5018413;28;20046;-82
2024/02/04 04:02:55;;;;;;;9.90;7.63;;;;;;;9.80;100.00;101732.06;5013522;28;20056;-81
2024/02/04 04:05:22;;;;;;;10.50;7.40;;;;;;;9.81;100.00;101724.97;5020795;28;20053;-79
2024/02/04 04:07:52;;;;;;;11.07;7.30;;;;;;;9.81;100.00;101730.25;5020156;28;20053;-80
2024/02/04 04:10:18;;;;;;;10.68;7.88;;;;;;;9.88;100.00;101739.47;5033434;22;20068;-80
2024/02/04 04:12:45;;;;;;;9.43;6.75;;;;;;;9.90;100.00;101740.22;5017293;28;20081;-80
2024/02/04 04:15:11;;;;;;;8.95;6.90;;;;;;;9.87;100.00;101724.59;5020518;28;20122;-83
2024/02/04 04:17:38;;;;;;;8.90;6.68;;;;;;;9.85;100.00;101727.31;5020929;28;20061;-81
2024/02/04 04:20:10;;;;;;;8.38;6.18;;;;;;;9.88;100.00;101736.84;5020752;28;20087;-80
2024/02/04 04:22:40;;;;;;;8.90;6.97;;;;;;;9.86;100.00;101730.78;5021302;28;20111;-81
2024/02/04 04:25:06;;;;;;;9.50;6.60;;;;;;;9.84;100.00;101745.94;5020794;28;20125;-80
2024/02/04 04:27:33;;;;;;;9.38;6.75;;;;;;;9.83;100.00;101741.59;5019851;28;20589;-80
2024/02/04 04:30:00;;;;;;;9.45;6.60;;;;;;;9.90;100.00;101742.00;5019809;28;20080;-80
2024/02/04 04:32:26;;;;;;;9.23;6.70;;;;;;;9.84;100.00;101735.34;5019444;28;20073;-79
2024/02/04 04:34:55;;;;;;;8.50;6.53;;;;;;;9.89;100.00;101743.81;5021052;28;20078;-80
2024/02/04 04:37:23;;;;;;;9.93;6.65;;;;;;;9.88;100.00;101763.28;5019776;28;20050;-80
2024/02/04 04:39:50;;;;;;;9.05;7.10;;;;;;;9.87;100.00;101753.66;5013083;28;20069;-80
2024/02/04 04:42:16;;;;;;;10.90;7.20;;;;;;;9.91;100.00;101736.66;5014566;28;20070;-80
2024/02/04 04:44:43;;;;;;;10.70;7.30;;;;;;;9.89;100.00;101751.75;5028993;28;20061;-79
2024/02/04 04:47:09;;;;;;;11.93;7.43;;;;;;;9.93;100.00;101760.34;5028278;28;20168;-81
2024/02/04 04:49:36;;;;;;;14.35;8.15;;;;;;;9.88;100.00;101779.16;5025058;28;20132;-82
2024/02/04 04:52:03;;;;;;;10.07;7.50;;;;;;;9.92;100.00;101778.00;5017966;28;20050;-81
2024/02/04 04:54:31;;;;;;;12.93;9.07;;;;;;;9.94;100.00;101765.50;5020386;28;20065;-81
2024/02/04 04:56:57;;;;;;;11.32;8.18;;;;;;;9.85;100.00;101769.59;5019216;28;20154;-82
2024/02/04 04:59:24;;;;;;;10.07;8.05;;;;;;;9.91;100.00;101786.88;5020318;28;20433;-81
2024/02/04 05:01:50;;;;;;;11.30;8.25;;;;;;;9.92;100.00;101763.94;5019573;28;20133;-80
2024/02/04 05:04:18;;;;;;;12.30;9.55;;;;;;;9.88;100.00;101768.56;5020655;28;20084;-80
2024/02/04 05:06:45;;;;;;;13.93;8.98;;;;;;;9.91;100.00;101751.63;5020187;28;20046;-81
2024/02/04 05:09:11;;;;;;;11.68;8.68;;;;;;;9.94;100.00;101747.00;5018267;28;20113;-81
2024/02/04 05:11:39;;;;;;;12.77;9.02;;;;;;;9.87;100.00;101743.94;5015549;28;20077;-81
2024/02/04 05:14:06;;;;;;;13.43;9.20;;;;;;;9.87;100.00;101746.56;5018812;28;20113;-80
2024/02/04 05:16:32;;;;;;;15.10;9.15;;;;;;;9.84;100.00;101756.50;5020700;28;20042;-81
2024/02/04 05:18:59;;;;;;;14.55;9.32;;;;;;;9.83;100.00;101746.88;5019687;28;20122;-80
2024/02/04 05:21:26;;;;;;;13.15;9.02;;;;;;;9.86;100.00;101744.84;5017424;28;20045;-81
2024/02/04 05:23:52;;;;;;;14.32;9.68;;;;;;;9.88;100.00;101758.00;5020859;28;20069;-80
2024/02/04 05:26:19;;;;;;;13.05;9.05;;;;;;;9.87;100.00;101753.66;5019873;28;20085;-80
2024/02/04 05:28:47;;;;;;;13.27;9.93;;;;;;;9.91;100.00;101752.50;5016543;28;20046;-82
2024/02/04 05:31:14;;;;;;;13.10;9.38;;;;;;;9.90;100.00;101750.78;5018116;28;20046;-80
2024/02/04 05:33:40;;;;;;;12.35;9.20;;;;;;;9.82;100.00;101739.88;5019454;28;20124;-80
2024/02/04 05:36:07;;;;;;;11.93;9.20;;;;;;;9.80;100.00;101757.66;5012649;28;20525;-82
2024/02/04 05:38:34;;;;;;;13.68;8.93;;;;;;;9.85;100.00;101751.09;5017818;28;20073;-81
2024/02/04 05:41:01;;;;;;;12.55;8.98;;;;;;;9.77;100.00;101750.75;5015583;28;20048;-80
2024/02/04 05:43:27;;;;;;;13.77;8.80;;;;;;;9.78;100.00;101755.13;5017596;28;20132;-81
2024/02/04 05:45:55;;;;;;;13.57;8.77;;;;;;;9.75;100.00;101751.81;5017851;28;20512;-80
2024/02/04 05:48:24;;;;;;;11.48;8.32;;;;;;;9.77;100.00;101753.41;5017028;28;20056;-78
2024/02/04 05:50:50;;;;;;;12.13;8.05;;;;;;;9.74;100.00;101731.63;5011658;28;20132;-79
2024/02/04 05:53:17;;;;;;;11.32;8.98;;;;;;;9.74;100.00;101735.13;5012815;28;20140;-81
2024/02/04 05:55:44;;;;;;;15.27;8.45;;;;;;;9.77;100.00;101729.59;5014692;28;20418;-79
2024/02/04 05:58:13;;;;;;;12.38;7.88;;;;;;;9.79;100.00;101726.88;5012458;28;20129;-78
2024/02/04 06:00:40;;;;;;;12.80;8.27;;;;;;;9.78;100.00;101722.56;5013275;28;20074;-80
2024/02/04 06:03:08;;;;;;;13.20;8.35;;;;;;;9.81;100.00;101714.41;5014726;28;20137;-79
2024/02/04 06:05:34;;;;;;;13.48;9.27;;;;;;;9.81;100.00;101706.47;5008031;28;20567;-79
2024/02/04 06:08:01;;;;;;;12.48;8.90;;;;;;;9.74;100.00;101703.41;5011475;28;20129;-78
2024/02/04 06:10:28;;;;;;;11.07;7.82;;;;;;;9.73;100.00;101706.13;5005835;28;20117;-78
2024/02/04 06:12:54;;;;;;;12.80;8.88;;;;;;;9.77;100.00;101702.31;5011673;28;20177;-79
2024/02/04 06:15:21;;;;;;;12.15;7.57;;;;;;;9.78;100.00;101704.03;5007869;28;20058;-79
2024/02/04 06:17:50;;;;;;;11.05;8.63;;;;;;;9.81;100.00;101699.38;5016539;28;20050;-80
2024/02/04 06:20:18;;;;;;;11.23;7.97;;;;;;;9.85;100.00;101710.59;5008209;28;20137;-79
2024/02/04 06:22:48;;;;;;;18.90;13.70;;;;;;;9.84;100.00;101706.25;5009508;28;20188;-79
2024/02/04 06:25:15;;;;;;;13.48;9.68;;;;;;;9.84;100.00;101712.41;5016686;28;20058;-79
2024/02/04 06:27:41;;;;;;;11.43;9.38;;;;;;;9.79;100.00;101714.50;5016533;28;20423;-80
2024/02/04 06:30:08;;;;;;;12.27;9.52;;;;;;;9.85;100.00;101722.00;5017669;28;20049;-79
2024/02/04 06:32:40;;;;;;;14.13;10.10;;;;;;;9.87;100.00;101727.22;5016384;28;20050;-79
2024/02/04 06:35:08;;;;;;;15.95;10.10;;;;;;;9.84;100.00;101708.91;5017575;28;20082;-80
2024/02/04 06:37:36;;;;;;;15.70;12.27;;;;;;;9.85;100.00;101711.44;5015697;28;20066;-79
2024/02/04 06:40:03;;;;;;;14.13;11.02;;;;;;;9.86;100.00;101709.63;5026845;28;20046;-79
2024/02/04 06:42:30;;;;;;;12.77;10.23;;;;;;;9.86;100.00;101710.47;5023965;28;20070;-82
2024/02/04 06:44:57;;;;;;;12.13;9.05;;;;;;;9.85;100.00;101700.03;5020836;28;20328;-82
2024/02/04 06:47:23;;;;;;;11.73;8.35;;;;;;;9.81;100.00;101698.53;5016041;28;20132;-81
2024/02/04 06:49:50;;;;;;;10.95;7.45;;;;;;;9.84;100.00;101687.75;5017301;28;20073;-79
2024/02/04 06:52:17;;;;;;;8.45;6.75;;;;;;;9.82;100.00;101690.53;5013504;28;20128;-79
2024/02/04 06:54:44;;;;;;;9.15;6.20;;;;;;;9.81;100.00;101690.59;5013885;28;20077;-79
2024/02/04 06:57:11;;;;;;;7.70;5.57;;;;;;;9.74;100.00;101695.47;5013075;28;20125;-80
2024/02/04 06:59:38;;;;;;;7.60;6.07;;;;;;;9.76;100.00;101700.63;5013142;28;20129;-81
2024/02/04 07:02:04;;;;;;;6.90;5.13;;;;;;;9.72;100.00;101707.06;5013979;28;20144;-81
2024/02/04 07:04:31;;;;;;;6.28;4.65;;;;;;;9.74;100.00;101694.63;5013070;28;20110;-81
2024/02/04 07:06:58;;;;;;;6.03;4.30;;;;;;;9.71;100.00;101703.59;5001627;28;20292;-78
2024/02/04 07:09:24;;;;;;;5.60;4.30;;;;;;;9.66;100.00;101704.84;5001352;28;20054;-80
2024/02/04 07:11:52;;;;;;;4.82;3.72;;;;;;;9.65;100.00;101687.31;5014196;28;20085;-77
2024/02/04 07:14:19;;;;;;;6.75;4.50;;;;;;;9.62;100.00;101669.84;5013794;28;20125;-79
2024/02/04 07:16:45;;;;;;;5.00;3.78;;;;;;;9.63;100.00;101666.25;5011537;28;20074;-79
2024/02/04 07:19:12;;;;;;;5.55;4.05;;;;;;;9.61;100.00;101665.50;5010579;28;20049;-79
2024/02/04 07:21:39;;;;;;;5.45;4.10;;;;;;;9.64;100.00;101670.56;5009946;28;20456;-79
2024/02/04 07:24:06;;;;;;;5.38;3.97;;;;;;;9.65;100.00;101677.59;5011816;28;20129;-80
2024/02/04 07:26:32;;;;;;;4.43;3.42;;;;;;;9.69;100.00;101688.78;5009546;28;20081;-78
2024/02/04 07:29:00;;;;;;;4.15;3.42;;;;;;;9.69;100.00;101687.00;5013009;28;20049;-80
2024/02/04 07:31:27;;;;;;;4.65;3.42;;;;;;;9.75;100.00;101688.38;5015876;28;20105;-81
2024/02/04 07:33:53;;;;;;;9.23;3.75;;;;;;;9.79;100.00;101689.88;5012919;28;20161;-80
2024/02/04 07:36:20;;;;;;;5.03;3.83;;;;;;;9.82;100.00;101700.22;5005970;28;20045;-81
2024/02/04 07:38:47;;;;;;;4.90;4.10;;;;;;;9.82;100.00;101697.56;5017889;28;20049;-78
2024/02/04 07:41:15;;;;;;;5.32;3.75;;;;;;;9.80;100.00;101699.50;5015583;28;20483;-79
2024/02/04 07:43:43;;;;;;;5.10;3.15;;;;;;;9.79;100.00;101696.00;5011809;28;20196;-79
2024/02/04 07:46:11;;;;;;;4.10;3.30;;;;;;;9.78;100.00;101688.19;5014827;28;20460;-81
2024/02/04 07:48:38;;;;;;;4.90;3.80;;;;;;;9.77;100.00;101697.88;5017750;28;20108;-78
2024/02/04 07:51:04;;;;;;;3.40;3.10;;;;;;;9.84;100.00;101698.34;5016683;28;20050;-78
2024/02/04 07:53:31;;;;;;;4.57;3.33;;;;;;;9.82;100.00;101708.16;5015694;28;20073;-81
2024/02/04 07:55:58;;;;;;;3.53;3.03;;;;;;;9.80;100.00;101702.13;5006255;28;20134;-79
2024/02/04 07:58:26;;;;;;;3.78;2.95;;;;;;;9.81;100.00;101687.97;5006418;28;20532;-79
2024/02/04 08:00:52;;;;;;;4.80;3.80;;;;;;;9.88;100.00;101692.75;5015631;28;20057;-79
2024/02/04 08:03:20;;;;;;;4.35;3.80;;;;;;;9.91;100.00;101699.63;5016197;28;20073;-80
2024/02/04 08:05:47;;;;;;;5.82;3.75;;;;;;;9.95;100.00;101697.59;5015555;28;20054;-78
2024/02/04 08:08:13;;;;;;;4.32;3.65;;;;;;;9.96;100.00;101691.38;5014078;28;20054;-80
2024/02/04 08:10:40;;;;;;;4.75;3.78;;;;;;;9.96;100.00;101702.81;5014240;28;20160;-80
2024/02/04 08:13:06;;;;;;;5.50;4.38;;;;;;;9.99;100.00;101678.78;5016320;28;20053;-80
2024/02/04 08:15:33;;;;;;;4.93;4.00;;;;;;;9.97;100.00;101690.44;5021445;28;20054;-81
2024/02/04 08:18:00;;;;;;;5.78;4.43;;;;;;;10.06;100.00;101688.00;5014065;28;20113;-80
2024/02/04 08:20:28;;;;;;;5.85;4.50;;;;;;;10.18;100.00;101688.09;5018545;28;20255;-79
2024/02/04 08:22:55;;;;;;;5.85;4.13;;;;;;;10.17;100.00;101694.34;5019968;28;20104;-81
2024/02/04 08:25:21;;;;;;;5.90;5.00;;;;;;;10.08;100.00;101690.53;5018073;28;20132;-80
2024/02/04 08:27:49;;;;;;;6.35;4.55;;;;;;;10.01;100.00;101694.56;4996935;28;20088;-81
2024/02/04 08:30:16;;;;;;;7.10;4.72;;;;;;;10.07;100.00;101700.25;5002241;28;20089;-81
2024/02/04 08:32:43;;;;;;;5.93;4.78;;;;;;;10.16;100.00;101695.31;5009647;28;20094;-79
2024/02/04 08:35:10;;;;;;;6.20;4.07;;;;;;;10.12;100.00;101697.31;5010910;28;20041;-82
2024/02/04 08:37:40;;;;;;;5.30;4.18;;;;;;;10.12;100.00;101687.56;5007084;28;20051;-80
2024/02/04 08:40:08;;;;;;;7.35;4.55;;;;;;;10.16;100.00;101713.81;5006236;28;20144;-83
2024/02/04 08:42:35;;;;;;;7.05;4.43;;;;;;;10.05;100.00;101719.84;5003935;28;20077;-82
2024/02/04 08:45:02;;;;;;;6.45;4.75;;;;;;;9.99;100.00;101713.16;4999512;28;20065;-79
2024/02/04 08:47:28;;;;;;;7.53;4.63;;;;;;;10.02;100.00;101710.31;4993761;28;20050;-79
2024/02/04 08:49:55;;;;;;;6.10;4.32;;;;;;;10.03;100.00;101698.78;4996102;28;20053;-81
2024/02/04 08:52:22;;;;;;;7.78;4.78;;;;;;;10.10;100.00;101708.00;5001998;28;20050;-80
2024/02/04 08:54:50;;;;;;;6.32;4.82;;;;;;;10.18;100.00;101696.91;5003213;28;20058;-82
2024/02/04 08:57:17;;;;;;;6.47;4.80;;;;;;;10.22;100.00;101700.16;5001651;28;20054;-80
2024/02/04 08:59:43;;;;;;;5.85;4.80;;;;;;;10.26;100.00;101694.59;5003268;28;20212;-80
2024/02/04 09:02:10;;;;;;;6.82;4.90;;;;;;;10.30;100.00;101689.94;4995629;28;20126;-80
2024/02/04 09:04:40;;;;;;;5.03;4.50;;;;;;;10.31;100.00;101684.56;5004033;28;20042;-79
2024/02/04 09:07:09;;;;;;;5.75;4.70;;;;;;;10.37;100.00;101683.28;5004714;28;20054;-79
2024/02/04 09:09:37;;;;;;;6.05;4.70;;;;;;;10.32;100.00;101688.03;5002289;28;20062;-82
2024/02/04 09:12:05;;;;;;;5.25;4.50;;;;;;;10.34;100.00;101688.78;5007325;28;20057;-80
2024/02/04 09:14:32;;;;;;;6.07;4.75;;;;;;;10.36;100.00;101700.94;5010354;28;20050;-79
2024/02/04 09:16:58;;;;;;;4.85;3.85;;;;;;;10.35;100.00;101696.59;5009032;28;20054;-81
2024/02/04 09:19:25;;;;;;;4.10;3.70;;;;;;;10.44;100.00;101692.47;5007302;28;20114;-80
2024/02/04 09:21:51;;;;;;;4.00;3.50;;;;;;;10.54;100.00;101690.88;4997544;28;20047;-80
2024/02/04 09:24:18;;;;;;;4.53;3.58;;;;;;;10.49;100.00;101703.59;4995401;28;20078;-80
2024/02/04 09:26:45;;;;;;;4.40;3.20;;;;;;;10.57;99.79;101693.28;5002840;28;20134;-79
2024/02/04 09:29:13;;;;;;;4.50;3.00;;;;;;;10.64;98.96;101706.97;5002051;28;20504;-80
2024/02/04 09:31:39;;;;;;;2.83;2.60;;;;;;;10.61;99.53;101710.66;4998987;28;20126;-77
2024/02/04 09:34:06;;;;;;;4.30;3.33;;;;;;;10.55;99.91;101716.38;4988219;28;20089;-79
2024/02/04 09:36:32;;;;;;;3.45;3.15;;;;;;;10.53;100.00;101726.22;4995956;28;20129;-77
2024/02/04 09:38:59;;;;;;;3.40;3.10;;;;;;;10.60;100.00;101724.84;4993383;28;20089;-79
2024/02/04 09:41:26;;;;;;;3.78;3.20;;;;;;;10.65;99.21;101721.03;4986597;28;20060;-78
2024/02/04 09:43:53;;;;;;;4.13;3.72;;;;;;;10.68;99.42;101712.88;4993510;28;20159;-78
2024/02/04 09:46:21;;;;;;;4.55;3.63;;;;;;;10.79;98.83;101710.31;4993287;28;20141;-78
2024/02/04 09:48:50;;;;;;;3.92;3.53;;;;;;;10.87;98.57;101700.03;4993417;28;20524;-78
2024/02/04 09:51:16;;;;;;;6.93;4.00;;;;;;;10.79;99.03;101699.72;4992400;28;20053;-77
2024/02/04 09:53:45;;;;;;;5.63;4.00;;;;;;;10.84;99.18;101711.66;4993851;28;20532;-77
2024/02/04 09:56:12;;;;;;;5.88;4.53;;;;;;;10.85;98.40;101708.09;4994248;28;20057;-77
2024/02/04 09:58:39;;;;;;;4.60;4.10;;;;;;;10.90;98.24;101704.28;4993906;28;20082;-75
2024/02/04 10:01:08;;;;;;;6.35;4.20;;;;;;;10.91;98.29;101703.31;4992959;28;20082;-79
2024/02/04 10:03:36;;;;;;;6.78;4.20;;;;;;;10.97;97.25;101705.50;4986676;28;20144;-77
2024/02/04 10:06:03;;;;;;;5.55;4.03;;;;;;;10.94;96.79;101690.69;4992875;28;20559;-78
2024/02/04 10:08:30;;;;;;;7.20;3.67;;;;;;;10.87;97.24;101681.50;4993106;28;20137;-76
2024/02/04 10:11:00;;;;;;;4.53;3.65;;;;;;;10.81;98.65;101698.66;5009662;23;20113;-81
2024/02/04 10:13:43;;;;;;;6.03;3.95;;;;;;;10.57;100.00;101695.94;5015276;28;20046;-82
2024/02/04 10:16:10;;;;;;;;;;;;;;;10.63;99.41;101700.81;5015387;28;20053;-82
2024/02/04 10:18:44;;;;;;;5.72;4.32;;;;;;;10.58;100.00;101702.94;5014059;28;20300;-81
2024/02/04 10:21:19;;;;;;;6.00;4.28;;;;;;;10.58;99.32;101710.91;5013701;28;20480;-80
2024/02/04 10:23:46;;;;;;;6.38;4.30;;;;;;;10.69;98.51;101701.34;5013871;28;20054;-81
2024/02/04 10:26:13;;;;;;;6.38;4.43;;;;;;;10.76;97.93;101703.44;5013661;28;20149;-81
2024/02/04 10:28:40;;;;;;;5.38;4.30;;;;;;;10.88;97.73;101705.19;5005667;28;20512;-80
2024/02/04 10:31:09;;;;;;;6.75;4.80;;;;;;;11.05;95.58;101705.81;5010887;28;20424;-81
2024/02/04 10:33:35;;;;;;;6.70;4.95;;;;;;;11.18;95.76;101697.81;5017854;28;20050;-82
2024/02/04 10:36:04;;;;;;;6.97;4.60;;;;;;;11.30;94.68;101687.16;5018823;28;20049;-81
2024/02/04 10:38:31;;;;;;;5.60;4.68;;;;;;;11.44;93.39;101694.09;5016550;28;20084;-81
2024/02/04 10:41:01;;;;;;;7.45;4.20;;;;;;;11.52;92.38;101698.81;5015260;28;20050;-83
2024/02/04 10:43:32;;;;;;;5.40;4.60;;;;;;;11.58;90.24;101696.56;5001384;28;20116;-81
2024/02/04 10:46:02;;;;;;;5.75;4.65;;;;;;;11.57;90.65;101680.78;5012694;28;20057;-82
2024/02/04 10:48:38;;;;;;;6.65;4.32;;;;;;;11.43;91.78;101684.47;5008071;28;20550;-83
2024/02/04 10:51:07;;;;;;;6.13;4.75;;;;;;;11.43;91.51;101692.41;5017272;28;20057;-83
2024/02/04 10:53:35;;;;;;;5.78;4.18;;;;;;;11.43;92.44;101687.13;5012384;28;20058;-82
2024/02/04 10:56:07;;;;;;;4.88;4.38;;;;;;;11.45;92.60;101698.44;5015062;28;20127;-82
2024/02/04 10:58:35;;;;;;;5.35;4.47;;;;;;;11.41;92.69;101694.31;5013147;28;20073;-82
2024/02/04 11:01:02;;;;;;;5.30;4.05;;;;;;;11.33;94.28;101694.88;5016195;28;20088;-81
2024/02/04 11:03:30;;;;;;;5.45;3.95;;;;;;;11.25;95.12;101699.03;5011719;28;20141;-83
2024/02/04 11:05:57;;;;;;;5.13;3.28;;;;;;;11.16;95.84;101700.56;5017536;28;20046;-84
2024/02/04 11:08:25;;;;;;;4.30;3.25;;;;;;;10.98;96.73;101691.28;5015002;28;20050;-83
2024/02/04 11:10:52;;;;;;;5.05;3.47;;;;;;;10.97;97.03;101681.66;5008617;28;20050;-83
2024/02/04 11:13:21;;;;;;;4.28;3.20;;;;;;;10.88;97.89;101685.81;5013953;28;20065;-84
2024/02/04 11:15:49;;;;;;;3.58;3.22;;;;;;;10.93;97.17;101686.34;5012443;28;20052;-83
2024/02/04 11:18:38;;;;;;;4.50;3.45;;;;;;;10.88;97.19;101678.72;5022094;28;20042;-84
2024/02/04 11:21:49;;;;;;;4.40;3.60;;;;;;;10.86;97.66;101691.25;5011274;28;20505;-84
2024/02/04 11:24:30;;;;;;;5.70;3.70;;;;;;;10.89;96.53;101679.56;4928162;29;20063;-80
2024/02/04 11:27:01;;;;;;;5.85;3.63;;;;;;;10.94;97.88;101676.59;4996797;28;20044;-82
2024/02/04 11:56:27;;;;;;;5.70;4.78;;;;;;;11.44;93.73;101635.78;4454712;23;20402;-85